Bookmark and Share
Track history (hours):
 

Mt Sveva

Last reported at 2014-Apr-22 05:32 UTC. Time now 2014-Apr-23 15:15 UTC.
Position N 38°07' W 009°47'.

Length 136 m; draft 8.7 m.

Type: Tanker. MMSI: 247359000.

NotesDate/timePositionNaut miles runAvg speedWind from/ knotsBaromVisibWave heightAir tempDewpointWater temp
2014-Apr-22 05:32N 38°07' W 009°47'1111.4
2014-Apr-22 04:33N 37°56' W 009°43'1111.4
2014-Apr-22 03:33N 37°45' W 009°40'198 8.9
2014-Apr-21 05:21N 35°58' W 006°12'910.2
2014-Apr-21 04:30N 35°58' W 006°01'910.0
2014-Apr-21 03:33N 35°58' W 005°49'1110.7
2014-Apr-21 02:33N 35°58' W 005°36'9 8.9
2014-Apr-21 01:33N 36°01' W 005°26'5 5.2
2014-Apr-21 00:33N 36°06' W 005°25'0 0.1
2014-Apr-20 23:32N 36°06' W 005°25'0 0.0
2014-Apr-20 22:32N 36°06' W 005°25'0 0.0
2014-Apr-20 21:32N 36°06' W 005°25'0 0.0
2014-Apr-20 20:32N 36°06' W 005°25'0 0.0
2014-Apr-20 19:32N 36°06' W 005°25'0 0.0
2014-Apr-20 18:32N 36°06' W 005°25'0 0.0
2014-Apr-20 17:32N 36°06' W 005°25'0 0.0
2014-Apr-20 16:32N 36°06' W 005°25'0 0.0
2014-Apr-20 15:32N 36°06' W 005°25'0 0.1
2014-Apr-20 14:32N 36°06' W 005°25'0 0.0
2014-Apr-20 13:32N 36°06' W 005°25'0 0.1
2014-Apr-20 12:32N 36°06' W 005°25'4 3.8
2014-Apr-20 11:33N 36°05' W 005°21'6 5.8
2014-Apr-20 10:33N 36°04' W 005°14'164 9.5
2014-Apr-19 17:14N 36°28' W 001°52'1011.3
2014-Apr-19 16:19N 36°30' W 001°40'910.2
2014-Apr-19 15:27N 36°32' W 001°29'11310.9
2014-Apr-19 05:04N 36°51' E 000°50'6811.2
2014-Apr-18 23:04N 37°02' E 002°13'611.3
2014-Apr-18 22:33N 37°03' E 002°21'1211.6
2014-Apr-18 21:32N 37°06' E 002°35'1312.7
2014-Apr-18 20:31N 37°08' E 002°51'1411.8
2014-Apr-18 19:20N 37°09' E 003°08'1311.4
2014-Apr-18 18:13N 37°11' E 003°24'811.9
2014-Apr-18 17:33N 37°12' E 003°34'1611.9
2014-Apr-18 16:14N 37°14' E 003°54'911.4
2014-Apr-18 15:29N 37°15' E 004°05'1111.4
2014-Apr-18 14:32N 37°16' E 004°18'36811.4
2014-Apr-17 06:17N 37°14' E 012°01'7811.5
2014-Apr-16 23:33N 36°53' E 013°35'1211.7
2014-Apr-16 22:33N 36°50' E 013°49'1211.9
2014-Apr-16 21:33N 36°47' E 014°03'1211.9
2014-Apr-16 20:33N 36°43' E 014°17'  

Dump ship's entire track history

sailing weather and tide predictions

Mt Sveva — IBEU — position and weather